createdAt,value
2022-08-07T00:00:06.062Z,26.89
2022-08-07T00:01:43.895Z,26.89
2022-08-07T00:02:36.032Z,26.89
2022-08-07T00:03:08.665Z,26.89
2022-08-07T00:04:09.448Z,26.91
2022-08-07T00:05:07.436Z,26.89
2022-08-07T00:06:07.663Z,26.88
2022-08-07T00:07:09.379Z,26.88
2022-08-07T00:08:08.194Z,26.89
2022-08-07T00:09:16.922Z,26.89
2022-08-07T00:10:26.463Z,26.88
2022-08-07T00:11:09.944Z,26.89
2022-08-07T00:12:09.265Z,26.91
2022-08-07T00:13:23.741Z,26.89
2022-08-07T00:14:10.815Z,26.89
2022-08-07T00:15:10.139Z,26.88
2022-08-07T00:16:10.425Z,26.88
2022-08-07T00:17:11.658Z,26.88
2022-08-07T00:18:19.767Z,26.88
2022-08-07T00:19:21.360Z,26.88
2022-08-07T00:20:15.710Z,26.88
2022-08-07T00:21:55.321Z,26.87
2022-08-07T00:22:13.020Z,26.87
2022-08-07T00:23:13.290Z,26.87
2022-08-07T00:24:12.604Z,26.88
2022-08-07T00:25:16.776Z,26.88
2022-08-07T00:26:31.415Z,26.88
2022-08-07T00:27:14.362Z,26.88
2022-08-07T00:28:13.619Z,26.87
2022-08-07T00:29:13.903Z,26.88
2022-08-07T00:30:26.617Z,26.88
2022-08-07T00:31:17.752Z,26.87
2022-08-07T00:32:14.813Z,26.88
2022-08-07T00:33:15.033Z,26.87
2022-08-07T00:34:15.282Z,26.87
2022-08-07T00:35:16.689Z,26.87
2022-08-07T00:36:16.951Z,26.88
2022-08-07T00:37:16.074Z,26.87
2022-08-07T00:38:16.316Z,26.87
2022-08-07T00:39:17.571Z,26.87
2022-08-07T00:40:16.886Z,26.87
2022-08-07T00:41:18.118Z,26.87
2022-08-07T00:42:17.427Z,26.87
2022-08-07T00:44:01.889Z,26.85
2022-08-07T00:44:18.908Z,26.88
2022-08-07T00:45:18.227Z,26.85
2022-08-07T00:46:18.486Z,26.85
2022-08-07T00:48:09.912Z,26.87
2022-08-07T00:48:24.860Z,26.85
2022-08-07T00:50:17.130Z,26.85
2022-08-07T00:50:46.256Z,26.87
2022-08-07T00:51:20.781Z,26.85
2022-08-07T00:52:20.343Z,26.85
2022-08-07T00:53:20.636Z,26.87
2022-08-07T00:54:20.700Z,26.85
2022-08-07T00:55:25.298Z,26.85
2022-08-07T00:56:22.201Z,26.87
2022-08-07T00:57:21.502Z,26.87
2022-08-07T00:58:21.822Z,26.85
2022-08-07T00:59:32.396Z,26.84
2022-08-07T01:00:23.292Z,26.85
2022-08-07T01:01:22.568Z,26.85
2022-08-07T01:02:28.559Z,26.84
2022-08-07T01:03:54.771Z,26.84
2022-08-07T01:04:24.813Z,26.85
2022-08-07T01:05:24.658Z,26.85
2022-08-07T01:06:24.025Z,26.85
2022-08-07T01:07:24.256Z,26.85
2022-08-07T01:08:24.543Z,26.84
2022-08-07T01:10:05.348Z,26.84
2022-08-07T01:10:26.516Z,26.84
2022-08-07T01:12:23.262Z,26.84
2022-08-07T01:12:29.649Z,26.84
2022-08-07T01:13:25.798Z,26.82
2022-08-07T01:14:28.134Z,26.82
2022-08-07T01:16:00.507Z,26.84
2022-08-07T01:16:30.450Z,26.84
2022-08-07T01:17:27.069Z,26.84
2022-08-07T01:18:27.127Z,26.84
2022-08-07T01:19:27.397Z,26.82
2022-08-07T01:20:30.681Z,26.82
2022-08-07T01:21:28.516Z,26.84
2022-08-07T01:22:29.143Z,26.82
2022-08-07T01:23:38.619Z,26.82
2022-08-07T01:24:30.637Z,26.84
2022-08-07T01:25:53.613Z,26.82
2022-08-07T01:26:30.272Z,26.82
2022-08-07T01:27:32.337Z,26.82
2022-08-07T01:28:29.853Z,26.82
2022-08-07T01:29:31.545Z,26.81
2022-08-07T01:30:30.454Z,26.82
2022-08-07T01:31:41.791Z,26.81
2022-08-07T01:32:31.915Z,26.81
2022-08-07T01:33:55.119Z,26.82
2022-08-07T01:34:32.464Z,26.82
2022-08-07T01:35:52.820Z,26.81
2022-08-07T01:36:34.004Z,26.81
2022-08-07T01:37:33.897Z,26.82
2022-08-07T01:38:32.597Z,26.82
2022-08-07T01:39:41.134Z,26.81
2022-08-07T01:40:34.068Z,26.81
2022-08-07T01:41:33.368Z,26.81
2022-08-07T01:42:39.377Z,26.81
2022-08-07T01:43:38.151Z,26.81
2022-08-07T01:44:34.158Z,26.81
2022-08-07T01:45:36.932Z,26.81
2022-08-07T01:46:35.609Z,26.82
2022-08-07T01:48:29.654Z,26.81
2022-08-07T01:48:40.984Z,26.81
2022-08-07T01:49:36.460Z,26.80
2022-08-07T01:50:35.780Z,26.80
2022-08-07T01:52:01.911Z,26.80
2022-08-07T01:52:37.252Z,26.80
2022-08-07T01:54:11.880Z,26.80
2022-08-07T01:54:37.805Z,26.80
2022-08-07T01:55:37.073Z,26.81
2022-08-07T01:56:37.373Z,26.80
2022-08-07T01:58:06.895Z,26.81
2022-08-07T01:58:41.015Z,26.80
2022-08-07T01:59:38.223Z,26.81
2022-08-07T02:00:48.909Z,26.80
2022-08-07T02:02:01.691Z,26.80
2022-08-07T02:03:18.703Z,26.80
2022-08-07T02:03:48.735Z,26.81
2022-08-07T02:04:52.566Z,26.80
2022-08-07T02:05:47.510Z,26.80
2022-08-07T02:06:41.096Z,26.80
2022-08-07T02:07:49.813Z,26.80
2022-08-07T02:08:41.745Z,26.77
2022-08-07T02:09:52.959Z,26.80
2022-08-07T02:10:42.458Z,26.77
2022-08-07T02:12:03.038Z,26.77
2022-08-07T02:12:42.639Z,26.77
2022-08-07T02:13:56.580Z,26.77
2022-08-07T02:14:43.207Z,26.77
2022-08-07T02:15:42.428Z,26.77
2022-08-07T02:16:42.660Z,26.77
2022-08-07T02:17:49.571Z,26.77
2022-08-07T02:18:45.335Z,26.77
2022-08-07T02:20:04.238Z,26.80
2022-08-07T02:20:48.509Z,26.77
2022-08-07T02:21:56.224Z,26.80
2022-08-07T02:22:45.203Z,26.77
2022-08-07T02:23:44.729Z,26.77
2022-08-07T02:24:44.875Z,26.77
2022-08-07T02:26:31.202Z,26.77
2022-08-07T02:26:46.323Z,26.77
2022-08-07T02:27:51.999Z,26.76
2022-08-07T02:28:46.844Z,26.77
2022-08-07T02:29:53.975Z,26.77
2022-08-07T02:30:47.318Z,26.77
2022-08-07T02:31:46.555Z,26.76
2022-08-07T02:33:00.534Z,26.77
2022-08-07T02:34:04.212Z,26.76
2022-08-07T02:34:48.686Z,26.76
2022-08-07T02:36:26.842Z,26.76
2022-08-07T02:36:48.897Z,26.76
2022-08-07T02:37:48.269Z,26.76
2022-08-07T02:38:50.901Z,26.75
2022-08-07T02:40:11.935Z,26.76
2022-08-07T02:40:55.293Z,26.76
2022-08-07T02:41:54.182Z,26.75
2022-08-07T02:42:49.599Z,26.75
2022-08-07T02:43:49.900Z,26.75
2022-08-07T02:44:50.157Z,26.75
2022-08-07T02:45:58.270Z,26.75
2022-08-07T02:46:52.783Z,26.75
2022-08-07T02:47:51.015Z,26.75
2022-08-07T02:48:55.071Z,26.75
2022-08-07T02:49:57.852Z,26.75
2022-08-07T02:50:52.741Z,26.75
2022-08-07T02:51:52.412Z,26.76
2022-08-07T02:52:52.330Z,26.75
2022-08-07T02:53:52.594Z,26.73
2022-08-07T02:54:52.854Z,26.73
2022-08-07T02:56:03.587Z,26.75
2022-08-07T02:56:54.325Z,26.75
2022-08-07T02:57:53.625Z,26.73
2022-08-07T02:58:54.241Z,26.73
2022-08-07T02:59:55.221Z,26.72
2022-08-07T03:00:55.486Z,26.73
2022-08-07T03:01:55.212Z,26.73
2022-08-07T03:02:55.535Z,26.73
2022-08-07T03:03:56.338Z,26.73
2022-08-07T03:04:55.547Z,26.73
2022-08-07T03:05:55.794Z,26.75
2022-08-07T03:06:56.058Z,26.73
2022-08-07T03:08:04.794Z,26.73
2022-08-07T03:08:57.529Z,26.73
2022-08-07T03:09:56.768Z,26.72
2022-08-07T03:10:57.009Z,26.73
2022-08-07T03:12:02.547Z,26.72
2022-08-07T03:12:58.480Z,26.73
2022-08-07T03:14:01.696Z,26.75
2022-08-07T03:14:58.009Z,26.72
2022-08-07T03:15:59.243Z,26.72
2022-08-07T03:16:58.663Z,26.72
2022-08-07T03:17:58.960Z,26.72
2022-08-07T03:18:59.202Z,26.72
2022-08-07T03:19:59.453Z,26.73
2022-08-07T03:20:59.754Z,26.72
2022-08-07T03:21:59.974Z,26.72
2022-08-07T03:23:00.215Z,26.72
2022-08-07T03:24:20.228Z,26.72
2022-08-07T03:25:01.685Z,26.72
2022-08-07T03:26:00.985Z,26.70
2022-08-07T03:27:01.303Z,26.70
2022-08-07T03:28:36.852Z,26.72
2022-08-07T03:29:02.767Z,26.72
2022-08-07T03:30:03.687Z,26.70
2022-08-07T03:31:02.387Z,26.69
2022-08-07T03:32:03.621Z,26.70
2022-08-07T03:33:02.956Z,26.70
2022-08-07T03:34:03.287Z,26.70
2022-08-07T03:35:17.354Z,26.70
2022-08-07T03:36:04.826Z,26.70
2022-08-07T03:37:11.883Z,26.69
2022-08-07T03:38:05.328Z,26.70
2022-08-07T03:39:05.294Z,26.70
2022-08-07T03:40:15.672Z,26.69
2022-08-07T03:41:06.186Z,26.70
2022-08-07T03:42:05.382Z,26.70
2022-08-07T03:43:13.911Z,26.69
2022-08-07T03:44:06.872Z,26.69
2022-08-07T03:45:06.122Z,26.69
2022-08-07T03:46:10.462Z,26.69
2022-08-07T03:47:14.023Z,26.70
2022-08-07T03:48:10.148Z,26.69
2022-08-07T03:49:07.133Z,26.69
2022-08-07T03:50:07.393Z,26.69
2022-08-07T03:51:07.714Z,26.69
2022-08-07T03:52:07.954Z,26.69
2022-08-07T03:53:09.195Z,26.69
2022-08-07T03:54:36.255Z,26.69
2022-08-07T03:55:09.745Z,26.69
2022-08-07T03:56:09.016Z,26.69
2022-08-07T03:57:09.283Z,26.67
2022-08-07T03:59:05.011Z,26.67
2022-08-07T03:59:13.440Z,26.66
2022-08-07T04:00:10.583Z,26.69
2022-08-07T04:01:11.297Z,26.67
2022-08-07T04:02:10.518Z,26.67
2022-08-07T04:03:10.758Z,26.67
2022-08-07T04:04:11.047Z,26.67
2022-08-07T04:05:12.288Z,26.67
2022-08-07T04:06:37.040Z,26.66
2022-08-07T04:07:17.403Z,26.66
2022-08-07T04:08:12.084Z,26.67
2022-08-07T04:09:15.828Z,26.67
2022-08-07T04:10:15.361Z,26.67
2022-08-07T04:12:25.604Z,26.66
2022-08-07T04:12:27.760Z,26.67
2022-08-07T04:13:15.047Z,26.66
2022-08-07T04:14:39.055Z,26.67
2022-08-07T04:15:15.009Z,26.67
2022-08-07T04:16:14.193Z,26.66
2022-08-07T04:17:20.175Z,26.66
2022-08-07T04:18:58.579Z,26.66
2022-08-07T04:19:16.405Z,26.67
2022-08-07T04:20:15.274Z,26.66
2022-08-07T04:21:16.479Z,26.66
2022-08-07T04:22:17.635Z,26.66
2022-08-07T04:23:19.190Z,26.66
2022-08-07T04:24:30.458Z,26.65
2022-08-07T04:25:17.655Z,26.65
2022-08-07T04:26:17.018Z,26.66
2022-08-07T04:27:25.149Z,26.66
2022-08-07T04:28:18.463Z,26.65
2022-08-07T04:29:17.787Z,26.65
2022-08-07T04:30:21.369Z,26.65
2022-08-07T04:31:19.813Z,26.65
2022-08-07T04:32:18.608Z,26.65
2022-08-07T04:33:19.837Z,26.65
2022-08-07T04:34:24.136Z,26.65
2022-08-07T04:35:20.299Z,26.65
2022-08-07T04:36:22.729Z,26.65
2022-08-07T04:37:20.791Z,26.65
2022-08-07T04:38:20.101Z,26.65
2022-08-07T04:39:25.463Z,26.63
2022-08-07T04:40:21.581Z,26.66
2022-08-07T04:41:21.851Z,26.65
2022-08-07T04:42:22.072Z,26.63
2022-08-07T04:44:09.729Z,26.65
2022-08-07T04:44:22.733Z,26.65
2022-08-07T04:45:58.035Z,26.65
2022-08-07T04:46:29.320Z,26.65
2022-08-07T04:47:57.025Z,26.65
2022-08-07T04:48:23.744Z,26.65
2022-08-07T04:49:24.748Z,26.63
2022-08-07T04:50:23.324Z,26.63
2022-08-07T04:51:27.068Z,26.65
2022-08-07T04:52:25.167Z,26.63
2022-08-07T04:53:39.889Z,26.65
2022-08-07T04:54:29.920Z,26.63
2022-08-07T04:58:07.910Z,26.65
2022-08-07T04:58:10.889Z,26.63
2022-08-07T04:58:13.161Z,26.63
2022-08-07T04:59:01.620Z,26.63
2022-08-07T05:00:12.559Z,26.63
2022-08-07T05:00:30.711Z,26.63
2022-08-07T05:01:30.242Z,26.65
2022-08-07T05:02:26.747Z,26.63
2022-08-07T05:04:00.085Z,26.65
2022-08-07T05:04:28.218Z,26.63
2022-08-07T05:05:53.372Z,26.63
2022-08-07T05:06:28.719Z,26.65
2022-08-07T05:07:36.696Z,26.65
2022-08-07T05:08:58.864Z,26.63
2022-08-07T05:09:45.306Z,26.63
2022-08-07T05:10:29.852Z,26.63
2022-08-07T05:11:57.364Z,26.63
2022-08-07T05:12:30.728Z,26.63
2022-08-07T05:14:53.515Z,26.65
2022-08-07T05:14:56.350Z,26.63
2022-08-07T05:15:31.199Z,26.63
2022-08-07T05:16:30.503Z,26.63
2022-08-07T05:17:51.522Z,26.63
2022-08-07T05:18:32.159Z,26.65
2022-08-07T05:19:44.226Z,26.65
2022-08-07T05:20:32.436Z,26.62
2022-08-07T05:22:00.199Z,26.62
2022-08-07T05:22:32.967Z,26.63
2022-08-07T05:23:32.254Z,26.63
2022-08-07T05:24:39.710Z,26.63
2022-08-07T05:25:36.737Z,26.65
2022-08-07T05:26:34.046Z,26.62
2022-08-07T05:28:03.323Z,26.63
2022-08-07T05:28:34.597Z,26.63
2022-08-07T05:29:39.146Z,26.63
2022-08-07T05:30:35.149Z,26.63
2022-08-07T05:31:34.694Z,26.65
2022-08-07T05:32:34.720Z,26.63
2022-08-07T05:33:35.557Z,26.65
2022-08-07T05:34:35.258Z,26.66
2022-08-07T05:41:22.899Z,26.69
2022-08-07T05:42:34.227Z,26.69
2022-08-07T05:44:01.545Z,26.70
2022-08-07T05:44:29.605Z,26.70
2022-08-07T05:45:28.287Z,26.72
2022-08-07T05:46:26.425Z,26.70
2022-08-07T05:47:37.935Z,26.70
2022-08-07T05:48:26.513Z,26.70
2022-08-07T05:49:25.120Z,26.72
2022-08-07T05:50:25.390Z,26.72
2022-08-07T05:51:25.704Z,26.70
2022-08-07T05:52:32.187Z,26.72
2022-08-07T05:54:13.547Z,26.72
2022-08-07T05:54:31.289Z,26.70
2022-08-07T05:56:01.975Z,26.72
2022-08-07T05:56:30.258Z,26.72
2022-08-07T05:57:30.351Z,26.72
2022-08-07T05:58:35.940Z,26.72
2022-08-07T05:59:28.832Z,26.72
2022-08-07T06:00:29.112Z,26.73
2022-08-07T06:01:35.662Z,26.72
2022-08-07T06:02:30.815Z,26.72
2022-08-07T06:03:53.487Z,26.73
2022-08-07T06:04:30.435Z,26.73
2022-08-07T06:05:29.394Z,26.73
2022-08-07T06:06:32.703Z,26.73
2022-08-07T06:08:29.631Z,26.75
2022-08-07T06:08:31.628Z,26.75
2022-08-07T06:10:04.565Z,26.73
2022-08-07T06:10:31.754Z,26.73
2022-08-07T06:11:31.017Z,26.72
2022-08-07T06:12:33.149Z,26.75
2022-08-07T06:14:12.401Z,26.75
2022-08-07T06:14:32.767Z,26.75
2022-08-07T06:15:39.138Z,26.75
2022-08-07T06:16:33.318Z,26.75
2022-08-07T06:17:38.248Z,26.75
2022-08-07T06:18:33.866Z,26.75
2022-08-07T06:19:49.927Z,26.75
2022-08-07T06:20:49.819Z,26.76
2022-08-07T06:22:16.272Z,26.75
2022-08-07T06:22:39.089Z,26.76
2022-08-07T06:24:37.492Z,26.76
2022-08-07T06:24:46.219Z,26.76
2022-08-07T06:25:36.181Z,26.76
2022-08-07T06:26:35.019Z,26.77
2022-08-07T06:28:00.545Z,26.76
2022-08-07T06:28:36.502Z,26.76
2022-08-07T06:29:38.746Z,26.77
2022-08-07T06:30:41.356Z,26.77
2022-08-07T06:31:47.320Z,26.77
2022-08-07T06:32:37.610Z,26.77
2022-08-07T06:33:36.913Z,26.77
2022-08-07T06:34:37.164Z,26.80
2022-08-07T06:35:39.069Z,26.77
2022-08-07T06:36:38.664Z,26.80
2022-08-07T06:37:44.229Z,26.80
2022-08-07T06:38:39.186Z,26.81
2022-08-07T06:40:18.265Z,26.81
2022-08-07T06:40:46.048Z,26.80
2022-08-07T06:42:00.879Z,26.81
2022-08-07T06:42:40.284Z,26.80
2022-08-07T06:43:40.114Z,26.81
2022-08-07T06:44:40.808Z,26.81
2022-08-07T06:45:40.118Z,26.81
2022-08-07T06:46:40.347Z,26.80
2022-08-07T06:47:56.985Z,26.80
2022-08-07T06:48:44.687Z,26.81
2022-08-07T06:49:50.874Z,26.81
2022-08-07T06:50:43.419Z,26.82
2022-08-07T06:51:49.494Z,26.81
2022-08-07T06:52:42.889Z,26.81
2022-08-07T06:55:29.814Z,26.81
2022-08-07T06:55:32.878Z,26.81
2022-08-07T06:55:53.788Z,26.82
2022-08-07T06:56:49.760Z,26.81
2022-08-07T06:57:50.885Z,26.81
2022-08-07T07:00:12.871Z,26.81
2022-08-07T07:00:14.656Z,26.82
2022-08-07T07:00:45.011Z,26.81
2022-08-07T07:01:50.810Z,26.81
2022-08-07T07:02:49.052Z,26.82
2022-08-07T07:03:49.049Z,26.81
2022-08-07T07:04:55.095Z,26.82
2022-08-07T07:06:03.486Z,26.82
2022-08-07T07:06:57.508Z,26.82
2022-08-07T07:07:59.090Z,26.81
2022-08-07T07:08:47.205Z,26.82
2022-08-07T07:09:46.515Z,26.82
2022-08-07T07:10:47.399Z,26.82
2022-08-07T07:12:08.216Z,26.81
2022-08-07T07:12:48.800Z,26.81
2022-08-07T07:13:57.729Z,26.84
2022-08-07T07:14:48.916Z,26.84
2022-08-07T07:15:51.408Z,26.82
2022-08-07T07:16:51.162Z,26.82
2022-08-07T07:17:50.656Z,26.82
2022-08-07T07:18:49.058Z,26.84
2022-08-07T07:19:57.428Z,26.82
2022-08-07T07:20:50.539Z,26.84
2022-08-07T07:22:11.994Z,26.82
2022-08-07T07:24:08.057Z,26.82
2022-08-07T07:24:10.430Z,26.82
2022-08-07T07:25:02.401Z,26.82
2022-08-07T07:26:34.087Z,26.82
2022-08-07T07:26:52.585Z,26.82
2022-08-07T07:27:56.322Z,26.82
2022-08-07T07:29:56.317Z,26.82
2022-08-07T07:30:09.206Z,26.82
2022-08-07T07:30:53.391Z,26.82
2022-08-07T07:31:52.613Z,26.84
2022-08-07T07:32:52.892Z,26.82
2022-08-07T07:33:56.948Z,26.84
2022-08-07T07:34:53.422Z,26.82
2022-08-07T07:36:03.787Z,26.84
2022-08-07T07:36:54.924Z,26.84
2022-08-07T07:38:02.407Z,26.84
2022-08-07T07:38:55.454Z,26.84
2022-08-07T07:39:55.614Z,26.82
2022-08-07T07:40:57.667Z,26.82
2022-08-07T07:42:13.277Z,26.84
2022-08-07T07:42:56.515Z,26.82
2022-08-07T07:44:14.382Z,26.82
2022-08-07T07:44:57.054Z,26.84
2022-08-07T07:46:37.072Z,26.84
2022-08-07T07:47:09.284Z,26.82
2022-08-07T07:47:57.874Z,26.82
2022-08-07T07:49:00.218Z,26.82
2022-08-07T07:50:33.578Z,26.84
2022-08-07T07:50:58.696Z,26.82
2022-08-07T07:51:59.586Z,26.82
2022-08-07T07:52:58.268Z,26.84
2022-08-07T07:53:58.580Z,26.84
2022-08-07T07:54:58.850Z,26.82
2022-08-07T07:56:00.563Z,26.82
2022-08-07T07:56:59.429Z,26.82
2022-08-07T07:57:59.640Z,26.82
2022-08-07T07:58:59.961Z,26.82
2022-08-07T08:00:00.277Z,26.82
2022-08-07T08:01:00.606Z,26.81
2022-08-07T08:02:05.264Z,26.82
2022-08-07T08:03:05.392Z,26.81
2022-08-07T08:04:10.640Z,26.82
2022-08-07T08:05:02.622Z,26.82
2022-08-07T08:06:01.892Z,26.82
2022-08-07T08:07:02.803Z,26.82
2022-08-07T08:08:03.555Z,26.81
2022-08-07T08:09:02.704Z,26.84
2022-08-07T08:10:05.022Z,26.84
2022-08-07T08:11:03.215Z,26.84
2022-08-07T08:12:05.051Z,26.82
2022-08-07T08:13:03.723Z,26.84
2022-08-07T08:14:03.983Z,26.84
2022-08-07T08:15:06.883Z,26.82
2022-08-07T08:16:04.511Z,26.82
2022-08-07T08:17:55.555Z,26.84
2022-08-07T08:18:18.038Z,26.82
2022-08-07T08:19:17.625Z,26.84
2022-08-07T08:20:17.829Z,26.84
2022-08-07T08:21:07.609Z,26.84
2022-08-07T08:22:06.079Z,26.84
2022-08-07T08:23:08.125Z,26.84
2022-08-07T08:24:06.708Z,26.84
2022-08-07T08:25:24.646Z,26.85
2022-08-07T08:26:08.228Z,26.87
2022-08-07T08:27:09.499Z,26.85
2022-08-07T08:28:07.869Z,26.85
2022-08-07T08:29:08.254Z,26.85
2022-08-07T08:30:08.460Z,26.85
2022-08-07T08:31:15.766Z,26.85
2022-08-07T08:32:18.612Z,26.85
2022-08-07T08:33:15.197Z,26.85
2022-08-07T08:34:10.531Z,26.87
2022-08-07T08:35:09.865Z,26.87
2022-08-07T08:36:10.182Z,26.85
2022-08-07T08:38:01.266Z,26.87
2022-08-07T08:38:11.775Z,26.87
2022-08-07T08:39:10.973Z,26.87
2022-08-07T08:40:11.524Z,26.87
2022-08-07T08:41:12.969Z,26.87
2022-08-07T08:42:11.813Z,26.88
2022-08-07T08:43:12.055Z,26.88
2022-08-07T08:44:12.315Z,26.88
2022-08-07T08:45:13.230Z,26.89
2022-08-07T08:46:12.826Z,26.91
2022-08-07T08:47:13.116Z,26.92
2022-08-07T08:48:13.380Z,26.91
2022-08-07T08:49:13.650Z,26.92
2022-08-07T08:50:17.578Z,26.92
2022-08-07T08:51:29.537Z,26.94
2022-08-07T08:52:16.475Z,26.94
2022-08-07T08:53:14.681Z,26.94
2022-08-07T08:54:14.916Z,26.94
2022-08-07T08:55:21.050Z,26.97
2022-08-07T08:56:17.368Z,26.95
2022-08-07T08:57:16.331Z,26.97
2022-08-07T08:58:24.946Z,26.97
2022-08-07T08:59:17.269Z,26.99
2022-08-07T09:00:16.520Z,26.99
2022-08-07T09:01:18.639Z,27.00
2022-08-07T09:02:17.168Z,27.02
2022-08-07T09:03:18.361Z,27.02
2022-08-07T09:04:17.600Z,27.03
2022-08-07T09:05:20.715Z,27.04
2022-08-07T09:06:18.101Z,27.04
2022-08-07T09:07:23.278Z,27.06
2022-08-07T09:08:24.141Z,27.06
2022-08-07T09:09:20.986Z,27.06
2022-08-07T09:10:20.124Z,27.07
2022-08-07T09:11:24.896Z,27.07
2022-08-07T09:12:31.555Z,27.09
2022-08-07T09:13:20.974Z,27.10
2022-08-07T09:14:21.254Z,27.10
2022-08-07T09:16:25.687Z,27.10
2022-08-07T09:16:30.179Z,27.12
2022-08-07T09:17:22.106Z,27.13
2022-08-07T09:18:23.648Z,27.13
2022-08-07T09:19:50.931Z,27.13
2022-08-07T09:20:35.476Z,27.17
2022-08-07T09:21:34.055Z,27.17
2022-08-07T09:24:30.716Z,27.18
2022-08-07T09:24:33.253Z,27.18
2022-08-07T09:24:33.364Z,27.19
2022-08-07T09:25:24.538Z,27.21
2022-08-07T09:26:23.610Z,27.22
2022-08-07T09:27:23.870Z,27.22
2022-08-07T09:30:02.403Z,27.22
2022-08-07T09:30:04.272Z,27.22
2022-08-07T09:30:28.224Z,27.25
2022-08-07T09:31:24.980Z,27.25
2022-08-07T09:32:26.370Z,27.25
2022-08-07T09:33:52.407Z,27.27
2022-08-07T09:34:27.240Z,27.27
2022-08-07T09:36:02.988Z,27.27
2022-08-07T09:36:28.583Z,27.28
2022-08-07T09:37:47.730Z,27.29
2022-08-07T09:38:27.792Z,27.31
2022-08-07T09:39:53.867Z,27.31
2022-08-07T09:40:28.340Z,27.32
2022-08-07T09:41:27.766Z,27.32
2022-08-07T09:42:33.245Z,27.31
2022-08-07T09:44:03.399Z,27.32
2022-08-07T09:44:58.498Z,27.32
2022-08-07T09:47:25.127Z,27.34
2022-08-07T09:47:49.766Z,27.34
2022-08-07T09:48:00.102Z,27.36
2022-08-07T09:48:43.943Z,27.36
2022-08-07T09:50:01.160Z,27.37
2022-08-07T09:50:30.946Z,27.36
2022-08-07T09:52:15.569Z,27.37
2022-08-07T09:52:34.685Z,27.39
2022-08-07T09:53:40.832Z,27.39
2022-08-07T09:54:31.998Z,27.39
2022-08-07T09:56:02.353Z,27.39
2022-08-07T09:56:34.119Z,27.39
2022-08-07T09:57:32.749Z,27.39
2022-08-07T09:58:32.813Z,27.40
2022-08-07T09:59:44.325Z,27.40
2022-08-07T10:00:33.586Z,27.41
2022-08-07T10:01:51.981Z,27.41
2022-08-07T10:02:34.120Z,27.41
2022-08-07T10:04:05.964Z,27.41
2022-08-07T10:04:38.075Z,27.41
2022-08-07T10:06:00.855Z,27.43
2022-08-07T10:06:35.664Z,27.40
2022-08-07T10:07:49.539Z,27.41
2022-08-07T10:08:35.613Z,27.40
2022-08-07T10:09:59.317Z,27.41
2022-08-07T10:11:00.290Z,27.41
2022-08-07T10:12:02.358Z,27.41
2022-08-07T10:12:39.681Z,27.43
2022-08-07T10:14:00.375Z,27.41
2022-08-07T10:14:37.244Z,27.43
2022-08-07T10:15:37.665Z,27.43
2022-08-07T10:16:37.794Z,27.43
2022-08-07T10:18:03.006Z,27.43
2022-08-07T10:18:38.286Z,27.43
2022-08-07T10:19:38.657Z,27.43
2022-08-07T10:20:37.935Z,27.44
2022-08-07T10:22:15.134Z,27.44
2022-08-07T10:22:39.432Z,27.46
2022-08-07T10:24:06.372Z,27.46
2022-08-07T10:24:39.986Z,27.46
2022-08-07T10:25:42.798Z,27.46
2022-08-07T10:26:39.607Z,27.46
2022-08-07T10:27:46.045Z,27.46
2022-08-07T10:28:41.088Z,27.46
2022-08-07T10:29:45.863Z,27.46
2022-08-07T10:30:41.639Z,27.47
2022-08-07T10:31:40.970Z,27.47
2022-08-07T10:32:53.195Z,27.46
2022-08-07T10:34:06.797Z,27.46
2022-08-07T10:34:42.710Z,27.47
2022-08-07T10:35:56.059Z,27.47
2022-08-07T10:36:43.221Z,27.49
2022-08-07T10:38:00.703Z,27.49
2022-08-07T10:38:49.036Z,27.49
2022-08-07T10:40:03.059Z,27.49
2022-08-07T10:40:44.341Z,27.51
2022-08-07T10:41:52.893Z,27.49
2022-08-07T10:42:44.893Z,27.50
2022-08-07T10:43:44.123Z,27.50
2022-08-07T10:44:45.244Z,27.50
2022-08-07T10:45:57.697Z,27.50
2022-08-07T10:46:45.925Z,27.50
2022-08-07T10:47:53.808Z,27.51
2022-08-07T10:48:46.465Z,27.51
2022-08-07T10:49:50.935Z,27.51
2022-08-07T10:50:50.403Z,27.51
2022-08-07T10:52:02.219Z,27.51
2022-08-07T10:52:51.333Z,27.51
2022-08-07T10:53:46.899Z,27.54
2022-08-07T10:55:00.717Z,27.51
2022-08-07T10:55:48.387Z,27.51
2022-08-07T10:56:47.708Z,27.54
2022-08-07T10:57:56.037Z,27.54
2022-08-07T10:58:49.649Z,27.54
2022-08-07T10:59:49.471Z,27.54
2022-08-07T11:00:50.359Z,27.55
2022-08-07T11:01:51.469Z,27.55
2022-08-07T11:02:53.309Z,27.55
2022-08-07T11:03:55.263Z,27.55
2022-08-07T11:04:51.273Z,27.55
2022-08-07T11:05:50.883Z,27.55
2022-08-07T11:06:50.452Z,27.55
2022-08-07T11:07:59.205Z,27.57
2022-08-07T11:08:51.941Z,27.57
2022-08-07T11:10:07.965Z,27.57
2022-08-07T11:10:57.850Z,27.59
2022-08-07T11:11:52.681Z,27.57
2022-08-07T11:13:01.673Z,27.57
2022-08-07T11:14:45.418Z,27.57
2022-08-07T11:14:59.690Z,27.57
2022-08-07T11:15:54.420Z,27.59
2022-08-07T11:16:55.769Z,27.57
2022-08-07T11:17:54.314Z,27.59
2022-08-07T11:18:53.625Z,27.57
2022-08-07T11:19:53.884Z,27.59
2022-08-07T11:20:54.205Z,27.59
2022-08-07T11:21:54.468Z,27.57
2022-08-07T11:22:54.716Z,27.59
2022-08-07T11:23:54.966Z,27.59
2022-08-07T11:24:55.216Z,27.59
2022-08-07T11:25:55.475Z,27.59
2022-08-07T11:26:56.708Z,27.60
2022-08-07T11:28:01.838Z,27.60
2022-08-07T11:28:57.232Z,27.62
2022-08-07T11:30:17.682Z,27.60
2022-08-07T11:30:57.767Z,27.60
2022-08-07T11:31:57.086Z,27.60
2022-08-07T11:32:57.346Z,27.60
2022-08-07T11:33:59.548Z,27.60
2022-08-07T11:34:58.098Z,27.60
2022-08-07T11:36:00.306Z,27.62
2022-08-07T11:37:00.417Z,27.62
2022-08-07T11:38:12.741Z,27.62
2022-08-07T11:39:00.076Z,27.62
2022-08-07T11:40:01.989Z,27.62
2022-08-07T11:40:59.618Z,27.62
2022-08-07T11:42:00.147Z,27.60
2022-08-07T11:43:00.172Z,27.62
2022-08-07T11:44:12.005Z,27.62
2022-08-07T11:45:03.578Z,27.62
2022-08-07T11:46:00.972Z,27.62
2022-08-07T11:47:01.285Z,27.63
2022-08-07T11:48:03.340Z,27.63
2022-08-07T11:49:50.439Z,27.63
2022-08-07T11:50:30.628Z,27.63
2022-08-07T11:51:03.322Z,27.63
2022-08-07T11:52:02.576Z,27.65
2022-08-07T11:53:05.161Z,27.65
2022-08-07T11:54:09.700Z,27.63
2022-08-07T11:55:13.183Z,27.63
2022-08-07T11:56:19.809Z,27.63
2022-08-07T11:57:04.935Z,27.63
2022-08-07T11:58:05.217Z,27.65
2022-08-07T11:59:05.487Z,27.65
2022-08-07T12:00:11.995Z,27.65
2022-08-07T12:01:06.818Z,27.65
2022-08-07T12:02:05.357Z,27.65
2022-08-07T12:03:06.572Z,27.65
2022-08-07T12:04:06.807Z,27.65
2022-08-07T12:05:09.067Z,27.66
2022-08-07T12:06:39.808Z,27.66
2022-08-07T12:07:09.038Z,27.66
2022-08-07T12:08:07.881Z,27.66
2022-08-07T12:09:08.160Z,27.66
2022-08-07T12:10:08.537Z,27.67
2022-08-07T12:11:20.105Z,27.66
2022-08-07T12:12:11.390Z,27.66
2022-08-07T12:13:11.610Z,27.66
2022-08-07T12:14:09.771Z,27.67
2022-08-07T12:15:17.420Z,27.67
2022-08-07T12:16:09.999Z,27.67
2022-08-07T12:17:09.264Z,27.67
2022-08-07T12:18:11.440Z,27.66
2022-08-07T12:19:09.747Z,27.66
2022-08-07T12:20:20.024Z,27.66
2022-08-07T12:21:11.276Z,27.67
2022-08-07T12:22:38.721Z,27.66
2022-08-07T12:23:14.439Z,27.67
2022-08-07T12:24:37.051Z,27.67
2022-08-07T12:26:00.440Z,27.69
2022-08-07T12:26:29.047Z,27.67
2022-08-07T12:27:14.995Z,27.67
2022-08-07T12:28:12.379Z,27.67
2022-08-07T12:29:12.428Z,27.69
2022-08-07T12:30:12.719Z,27.69
2022-08-07T12:31:17.158Z,27.69
2022-08-07T12:32:14.218Z,27.69
2022-08-07T12:33:18.909Z,27.69
2022-08-07T12:34:14.679Z,27.69
2022-08-07T12:35:13.988Z,27.69
2022-08-07T12:36:14.249Z,27.70
2022-08-07T12:37:16.875Z,27.69
2022-08-07T12:38:29.464Z,27.69
2022-08-07T12:39:42.874Z,27.70
2022-08-07T12:40:44.052Z,27.70
2022-08-07T12:41:16.650Z,27.70
2022-08-07T12:42:15.914Z,27.69
2022-08-07T12:44:01.563Z,27.70
2022-08-07T12:44:17.510Z,27.70
2022-08-07T12:45:16.721Z,27.74
2022-08-07T12:46:26.245Z,27.72
2022-08-07T12:47:21.787Z,27.74
2022-08-07T12:48:28.299Z,27.74
2022-08-07T12:49:39.863Z,27.74
2022-08-07T12:50:34.295Z,27.74
2022-08-07T12:51:19.404Z,27.72
2022-08-07T12:52:19.341Z,27.72
2022-08-07T12:53:19.238Z,27.75
2022-08-07T12:54:36.836Z,27.77
2022-08-07T12:55:20.472Z,27.75
2022-08-07T12:56:19.707Z,27.75
2022-08-07T12:57:20.111Z,27.75
2022-08-07T12:58:20.296Z,27.77
2022-08-07T12:59:21.535Z,27.75
2022-08-07T13:00:32.901Z,27.77
2022-08-07T13:01:22.025Z,27.77